• Join FlightAware (Why Join?)
  • Login
  • US Flag 
11:52AM EDT


 

Airport Tracker/Info


-or-


 

Live Flight TrackerFlight Track Log ✈ N300DC ✈ 28-Apr-2013 ✈ KHVN - 4V8

Flight Track Log - Related Links

Times and Time Zones

All times are in EDT time to prevent confusion due to time zone crossing. See the N300DC flight status page for this flight to view local times or setup timezone preferences in your user account.

Time Position Orientation Groundspeed Altitude Reporting Facility
EDT Latitude Longitude Course Direction KTS MPH feet Rate Location/Type
09:39AM 41.4431 -72.8858 North 106 122 5,600  Level Boston Center
09:40AM 41.4575 -72.8889 351° North 104 120 5,600 -60 Level Boston Center
09:41AM 41.4950 -72.8919 357° North 106 122 5,500  Descending Boston Center
09:42AM 41.5219 -72.8947 356° North 104 120 5,600  Climbing Boston Center
09:43AM 41.5533 -72.8950 360° North 102 117 5,600  Level Boston Center
09:44AM 41.5700 -72.8978 353° North 103 119 5,600  Level Boston Center
09:45AM 41.4126 -72.8850 North  Level Estimated
09:45AM 41.6053 -72.9119 343° North 102 117 5,600  Level Boston Center
09:46AM 41.6344 -72.9178 351° North 102 117 5,600  Level Boston Center
09:47AM 41.6636 -72.9181 360° North 103 119 5,600  Level Boston Center
09:48AM 41.6928 -72.9239 352° North 100 115 5,600  Level Boston Center
09:49AM 41.7136 -72.9294 349° North 102 117 5,600  Level Boston Center
09:50AM 41.7450 -72.9297 360° North 104 120 5,600  Level Boston Center
09:51AM 41.7742 -72.9328 356° North 105 121 5,600  Level Boston Center
09:52AM 41.7992 -72.9303 North 105 121 5,600  Level Boston Center
09:53AM 41.8325 -72.9306 360° North 105 121 5,600  Level Boston Center
09:54AM 41.8658 -72.9392 349° North 105 121 5,600  Level Boston Center
09:55AM 41.8928 -72.9422 355° North 103 119 5,600  Level Boston Center
09:56AM 41.9242 -72.9422 360° North 106 122 5,600  Level Boston Center
09:57AM 41.9511 -72.9425 360° North 103 119 5,600  Level Boston Center
09:58AM 41.9783 -72.9456 355° North 105 121 5,600  Level Boston Center
09:59AM 42.0075 -72.9403 North 106 122 5,700  Climbing Boston Center
10:00AM 42.0389 -72.9375 North 105 121 5,700  Level Boston Center
10:01AM 42.0639 -72.9350 North 106 122 5,700 -60 Level Boston Center
10:02AM 42.1014 -72.9269 North 108 124 5,600 -60 Descending Boston Center
10:03AM 42.1325 -72.9272 360° North 106 122 5,600  Level Boston Center
10:04AM 42.1639 -72.9275 360° North 105 121 5,600  Level Boston Center
10:05AM 42.1867 -72.9303 355° North 104 120 5,600  Level Boston Center
10:06AM 42.2158 -72.9364 351° North 103 119 5,600  Level Boston Center
10:07AM 42.2472 -72.9422 352° North 107 123 5,600  Level Boston Center
10:08AM 42.2764 -72.9453 356° North 107 123 5,600  Level Boston Center
10:09AM 42.3056 -72.9481 356° North 106 122 5,600  Level Boston Center
10:10AM 42.3347 -72.9542 351° North 106 122 5,600  Level Boston Center
10:11AM 42.3658 -72.9514 North 105 121 5,600  Level Boston Center
10:12AM 42.3972 -72.9489 North 106 122 5,600  Level Boston Center
10:13AM 42.4328 -72.9408 North 110 127 5,600  Level Boston Center
10:14AM 42.4639 -72.9439 356° North 105 121 5,600  Level Boston Center
10:15AM 42.4931 -72.9383 North 105 121 5,600  Level Boston Center
10:16AM 42.5222 -72.9331 North 105 121 5,600  Level Boston Center
10:17AM 42.5536 -72.9278 North 105 121 5,600  Level Boston Center
10:18AM 42.5828 -72.9167 16° North 105 121 5,600  Level Boston Center
10:19AM 42.6119 -72.9111 North 105 121 5,600  Level Boston Center
10:20AM 42.6392 -72.8972 21° North 105 121 5,600  Level Boston Center
10:21AM 42.6683 -72.8919 North 105 121 5,600  Level Boston Center
10:22AM 42.6975 -72.8919 360° North 105 121 5,600 -60 Level Boston Center
10:23AM 42.7289 -72.8894 North 105 121 5,500 -60 Descending Boston Center
10:24AM 42.7581 -72.8897 360° North 105 121 5,500  Level Boston Center